createdAt,value
2022-09-23T00:00:28.419Z,99541.00
2022-09-23T00:01:25.342Z,99539.31
2022-09-23T00:02:22.772Z,99537.53
2022-09-23T00:03:21.751Z,99540.19
2022-09-23T00:04:18.857Z,99538.38
2022-09-23T00:05:15.824Z,99530.53
2022-09-23T00:06:19.790Z,99535.78
2022-09-23T00:07:17.217Z,99539.38
2022-09-23T00:08:14.210Z,99534.09
2022-09-23T00:09:11.148Z,99542.06
2022-09-23T00:10:08.482Z,99534.16
2022-09-23T00:11:09.926Z,99527.94
2022-09-23T00:12:09.211Z,99536.72
2022-09-23T00:13:06.309Z,99531.41
2022-09-23T00:14:03.228Z,99530.53
2022-09-23T00:15:00.313Z,99532.31
2022-09-23T00:15:57.226Z,99527.06
2022-09-23T00:16:54.236Z,99532.31
2022-09-23T00:17:54.016Z,99528.81
2022-09-23T00:18:51.007Z,99534.09
2022-09-23T00:19:48.496Z,99528.00
2022-09-23T00:20:45.632Z,99541.16
2022-09-23T00:21:42.850Z,99529.72
2022-09-23T00:22:39.812Z,99526.22
2022-09-23T00:23:36.992Z,99527.16
2022-09-23T00:24:33.956Z,99528.03
2022-09-23T00:25:30.827Z,99528.03
2022-09-23T00:26:27.959Z,99531.50
2022-09-23T00:27:24.821Z,99526.22
2022-09-23T00:28:22.022Z,99524.50
2022-09-23T00:29:19.033Z,99525.44
2022-09-23T00:30:16.134Z,99528.09
2022-09-23T00:31:16.034Z,99521.91
2022-09-23T00:32:12.973Z,99521.03
2022-09-23T00:33:10.025Z,99519.28
2022-09-23T00:34:06.827Z,99524.50
2022-09-23T00:35:04.309Z,99527.16
2022-09-23T00:36:09.338Z,99526.28
2022-09-23T00:37:06.282Z,99523.63
2022-09-23T00:38:03.281Z,99521.88
2022-09-23T00:39:00.220Z,99519.19
2022-09-23T00:39:57.239Z,99530.63
2022-09-23T00:40:54.157Z,99527.06
2022-09-23T00:41:51.107Z,99527.06
2022-09-23T00:42:49.350Z,99527.88
2022-09-23T00:43:59.854Z,99518.25
2022-09-23T00:44:58.209Z,99522.53
2022-09-23T00:45:55.335Z,99521.72
2022-09-23T00:46:52.357Z,99520.84
2022-09-23T00:48:02.011Z,99519.94
2022-09-23T00:49:03.255Z,99518.16
2022-09-23T00:50:02.835Z,99527.75
2022-09-23T00:50:59.770Z,99525.09
2022-09-23T00:52:00.714Z,99522.47
2022-09-23T00:52:59.509Z,99527.69
2022-09-23T00:53:58.792Z,99532.09
2022-09-23T00:54:56.230Z,99516.13
2022-09-23T00:55:55.289Z,99517.88
2022-09-23T00:56:52.487Z,99514.31
2022-09-23T00:57:49.298Z,99516.03
2022-09-23T00:58:46.241Z,99518.56
2022-09-23T00:59:43.455Z,99514.97
2022-09-23T01:00:40.541Z,99519.38
2022-09-23T01:01:38.614Z,99518.47
2022-09-23T01:02:37.763Z,99520.19
2022-09-23T01:03:34.754Z,99513.16
2022-09-23T01:04:34.948Z,99520.16
2022-09-23T01:05:33.344Z,99514.81
2022-09-23T01:06:30.334Z,99521.88
2022-09-23T01:07:27.307Z,99513.00
2022-09-23T01:08:28.789Z,99518.41
2022-09-23T01:09:28.932Z,99508.81
2022-09-23T01:10:25.784Z,99513.13
2022-09-23T01:11:36.611Z,99510.56
2022-09-23T01:12:55.005Z,99520.19
2022-09-23T01:14:09.787Z,99509.59
2022-09-23T01:15:37.206Z,99507.78
2022-09-23T01:16:42.305Z,99500.59
2022-09-23T01:18:07.496Z,99500.53
2022-09-23T01:19:22.721Z,99506.75
2022-09-23T01:20:31.826Z,99501.34
2022-09-23T01:22:16.199Z,99504.78
2022-09-23T01:23:19.062Z,99504.69
2022-09-23T01:24:29.723Z,99501.09
2022-09-23T01:25:45.178Z,99503.66
2022-09-23T01:26:59.370Z,99508.06
2022-09-23T01:28:12.630Z,99508.13
2022-09-23T01:29:46.935Z,99501.88
2022-09-23T01:31:08.576Z,99503.56
2022-09-23T01:32:23.094Z,99500.13
2022-09-23T01:33:34.955Z,99494.94
2022-09-23T01:34:39.094Z,99499.34
2022-09-23T01:35:53.969Z,99497.56
2022-09-23T01:37:02.400Z,99485.31
2022-09-23T01:38:12.184Z,99491.41
2022-09-23T01:39:12.399Z,99485.31
2022-09-23T01:40:21.709Z,99481.88
2022-09-23T01:42:17.355Z,99487.25
2022-09-23T01:43:39.298Z,99481.25
2022-09-23T01:45:07.394Z,99479.66
2022-09-23T01:46:07.116Z,99480.66
2022-09-23T01:47:25.189Z,99476.31
2022-09-23T01:48:23.795Z,99480.72
2022-09-23T01:49:22.616Z,99483.28
2022-09-23T01:50:58.595Z,99482.41
2022-09-23T01:52:18.330Z,99478.03
2022-09-23T01:53:18.989Z,99483.31
2022-09-23T01:54:20.648Z,99478.91
2022-09-23T01:55:22.375Z,99482.34
2022-09-23T01:56:23.158Z,99472.69
2022-09-23T01:57:28.942Z,99477.06
2022-09-23T01:58:27.527Z,99471.78
2022-09-23T01:59:35.161Z,99478.81
2022-09-23T02:00:35.114Z,99479.63
2022-09-23T02:01:51.017Z,99477.84
2022-09-23T02:02:57.745Z,99469.97
2022-09-23T02:04:01.177Z,99484.91
2022-09-23T02:05:08.169Z,99480.53
2022-09-23T02:06:15.553Z,99472.56
2022-09-23T02:07:22.664Z,99469.06
2022-09-23T02:08:47.513Z,99477.94
2022-09-23T02:09:45.851Z,99478.75
2022-09-23T02:10:45.780Z,99466.50
2022-09-23T02:11:46.230Z,99472.66
2022-09-23T02:12:45.722Z,99469.16
2022-09-23T02:13:56.439Z,99474.44
2022-09-23T02:15:01.359Z,99477.81
2022-09-23T02:16:01.294Z,99475.06
2022-09-23T02:17:01.875Z,99474.19
2022-09-23T02:18:03.889Z,99454.88
2022-09-23T02:19:20.083Z,99459.38
2022-09-23T02:20:21.062Z,99459.38
2022-09-23T02:21:20.504Z,99466.41
2022-09-23T02:22:20.325Z,99463.78
2022-09-23T02:23:33.110Z,99466.53
2022-09-23T02:24:34.675Z,99471.88
2022-09-23T02:26:07.456Z,99466.75
2022-09-23T02:27:13.891Z,99478.22
2022-09-23T02:28:25.694Z,99466.75
2022-09-23T02:29:47.526Z,99470.25
2022-09-23T02:30:50.679Z,99470.31
2022-09-23T02:32:08.966Z,99463.22
2022-09-23T02:33:07.224Z,99466.63
2022-09-23T02:34:15.843Z,99457.78
2022-09-23T02:35:33.468Z,99463.81
2022-09-23T02:36:32.859Z,99460.25
2022-09-23T02:37:32.579Z,99452.28
2022-09-23T02:38:39.133Z,99462.75
2022-09-23T02:39:53.130Z,99462.75
2022-09-23T02:41:01.205Z,99462.69
2022-09-23T02:42:07.688Z,99461.00
2022-09-23T02:43:07.344Z,99457.47
2022-09-23T02:44:09.193Z,99453.94
2022-09-23T02:45:06.360Z,99460.13
2022-09-23T02:46:04.259Z,99454.09
2022-09-23T02:47:01.260Z,99460.19
2022-09-23T02:48:07.394Z,99457.63
2022-09-23T02:49:21.773Z,99454.97
2022-09-23T02:50:19.355Z,99462.81
2022-09-23T02:51:16.387Z,99460.03
2022-09-23T02:52:13.784Z,99456.44
2022-09-23T02:53:10.638Z,99444.91
2022-09-23T02:54:10.730Z,99447.38
2022-09-23T02:55:07.945Z,99449.97
2022-09-23T02:56:16.319Z,99456.09
2022-09-23T02:57:14.710Z,99451.66
2022-09-23T02:58:13.093Z,99456.97
2022-09-23T02:59:10.100Z,99450.81
2022-09-23T03:00:07.413Z,99438.50
2022-09-23T03:01:41.664Z,99438.53
2022-09-23T03:03:04.105Z,99439.44
2022-09-23T03:04:19.043Z,99434.19
2022-09-23T03:05:30.407Z,99440.34
2022-09-23T03:07:08.599Z,99429.84
2022-09-23T03:08:43.136Z,99428.03
2022-09-23T03:09:39.921Z,99428.91
2022-09-23T03:10:44.785Z,99433.28
2022-09-23T03:11:42.023Z,99432.44
2022-09-23T03:12:53.090Z,99425.47
2022-09-23T03:14:04.060Z,99424.66
2022-09-23T03:15:08.624Z,99431.63
2022-09-23T03:16:11.828Z,99425.69
2022-09-23T03:17:14.617Z,99418.75
2022-09-23T03:18:18.305Z,99422.31
2022-09-23T03:19:25.477Z,99425.78
2022-09-23T03:20:27.067Z,99419.72
2022-09-23T03:21:31.256Z,99427.63
2022-09-23T03:22:38.899Z,99420.69
2022-09-23T03:23:36.867Z,99430.28
2022-09-23T03:24:34.692Z,99423.31
2022-09-23T03:25:33.383Z,99420.69
2022-09-23T03:26:32.273Z,99433.00
2022-09-23T03:27:32.990Z,99414.50
2022-09-23T03:28:30.050Z,99411.84
2022-09-23T03:29:27.045Z,99418.91
2022-09-23T03:30:24.983Z,99424.25
2022-09-23T03:31:21.926Z,99419.00
2022-09-23T03:32:21.093Z,99416.44
2022-09-23T03:33:18.581Z,99415.59
2022-09-23T03:34:24.442Z,99420.97
2022-09-23T03:35:22.852Z,99420.09
2022-09-23T03:36:42.378Z,99422.00
2022-09-23T03:37:39.093Z,99411.59
2022-09-23T03:38:38.241Z,99414.28
2022-09-23T03:39:42.041Z,99421.41
2022-09-23T03:40:43.665Z,99418.84
2022-09-23T03:41:49.449Z,99413.69
2022-09-23T03:42:49.097Z,99415.47
2022-09-23T03:43:46.040Z,99419.88
2022-09-23T03:44:49.168Z,99419.06
2022-09-23T03:45:46.250Z,99420.00
2022-09-23T03:46:49.657Z,99424.38
2022-09-23T03:47:46.501Z,99419.16
2022-09-23T03:48:45.020Z,99419.19
2022-09-23T03:49:43.886Z,99420.97
2022-09-23T03:50:41.148Z,99422.72
2022-09-23T03:51:42.678Z,99421.84
2022-09-23T03:52:44.454Z,99422.72
2022-09-23T03:53:41.418Z,99414.81
2022-09-23T03:54:38.424Z,99421.78
2022-09-23T03:55:35.805Z,99419.97
2022-09-23T03:56:32.913Z,99421.66
2022-09-23T03:57:29.880Z,99411.94
2022-09-23T03:58:26.864Z,99411.81
2022-09-23T03:59:24.885Z,99416.25
2022-09-23T04:00:22.954Z,99417.13
2022-09-23T04:01:19.971Z,99410.88
2022-09-23T04:02:17.697Z,99410.78
2022-09-23T04:03:16.659Z,99411.72
2022-09-23T04:04:13.540Z,99402.84
2022-09-23T04:05:11.055Z,99407.19
2022-09-23T04:06:07.995Z,99397.50
2022-09-23T04:07:04.985Z,99396.63
2022-09-23T04:08:02.266Z,99400.09
2022-09-23T04:08:59.480Z,99399.28
2022-09-23T04:09:58.927Z,99397.66
2022-09-23T04:11:00.699Z,99395.13
2022-09-23T04:11:57.592Z,99392.59
2022-09-23T04:12:57.437Z,99392.69
2022-09-23T04:13:56.088Z,99393.66
2022-09-23T04:14:53.201Z,99382.31
2022-09-23T04:15:50.454Z,99385.06
2022-09-23T04:16:47.675Z,99382.50
2022-09-23T04:17:44.651Z,99381.72
2022-09-23T04:18:41.802Z,99387.91
2022-09-23T04:19:38.694Z,99385.38
2022-09-23T04:20:35.944Z,99385.41
2022-09-23T04:21:33.015Z,99384.56
2022-09-23T04:22:29.958Z,99383.75
2022-09-23T04:23:27.247Z,99386.44
2022-09-23T04:24:24.203Z,99383.88
2022-09-23T04:25:24.287Z,99392.66
2022-09-23T04:26:21.325Z,99389.13
2022-09-23T04:27:18.245Z,99388.22
2022-09-23T04:28:15.134Z,99384.72
2022-09-23T04:29:12.190Z,99380.34
2022-09-23T04:30:09.627Z,99378.66
2022-09-23T04:31:10.138Z,99375.09
2022-09-23T04:32:07.227Z,99379.53
2022-09-23T04:33:04.679Z,99371.69
2022-09-23T04:34:01.741Z,99386.63
2022-09-23T04:34:58.859Z,99380.53
2022-09-23T04:35:55.757Z,99378.84
2022-09-23T04:36:52.744Z,99383.31
2022-09-23T04:37:50.006Z,99383.31
2022-09-23T04:38:47.310Z,99383.38
2022-09-23T04:39:44.677Z,99389.53
2022-09-23T04:40:41.880Z,99382.56
2022-09-23T04:41:39.076Z,99386.06
2022-09-23T04:42:35.932Z,99379.91
2022-09-23T04:43:32.940Z,99380.78
2022-09-23T04:44:29.970Z,99378.16
2022-09-23T04:45:27.262Z,99379.91
2022-09-23T04:46:24.327Z,99375.47
2022-09-23T04:47:21.284Z,99377.94
2022-09-23T04:48:18.210Z,99383.09
2022-09-23T04:49:15.691Z,99383.00
2022-09-23T04:50:12.801Z,99380.19
2022-09-23T04:51:18.380Z,99380.97
2022-09-23T04:52:15.451Z,99387.03
2022-09-23T04:53:12.534Z,99380.75
2022-09-23T04:54:12.522Z,99378.03
2022-09-23T04:55:13.061Z,99373.59
2022-09-23T04:56:11.914Z,99380.66
2022-09-23T04:57:11.177Z,99375.38
2022-09-23T04:58:09.993Z,99383.28
2022-09-23T04:59:07.604Z,99383.25
2022-09-23T05:00:05.006Z,99389.41
2022-09-23T05:01:24.971Z,99388.59
2022-09-23T05:02:22.049Z,99386.00
2022-09-23T05:03:18.849Z,99386.84
2022-09-23T05:04:15.727Z,99388.59
2022-09-23T05:05:13.023Z,99386.84
2022-09-23T05:06:11.089Z,99384.19
2022-09-23T05:07:08.123Z,99381.56
2022-09-23T05:08:05.114Z,99384.13
2022-09-23T05:09:02.222Z,99391.09
2022-09-23T05:09:59.289Z,99382.28
2022-09-23T05:10:59.919Z,99377.81
2022-09-23T05:11:56.831Z,99383.97
2022-09-23T05:12:57.205Z,99376.88
2022-09-23T05:13:54.633Z,99370.75
2022-09-23T05:14:51.645Z,99376.00
2022-09-23T05:15:48.646Z,99377.78
2022-09-23T05:16:46.591Z,99376.94
2022-09-23T05:17:46.268Z,99376.97
2022-09-23T05:18:46.660Z,99371.75
2022-09-23T05:19:43.525Z,99371.75
2022-09-23T05:20:40.436Z,99386.69
2022-09-23T05:21:38.645Z,99391.09
2022-09-23T05:22:35.498Z,99388.50
2022-09-23T05:23:32.343Z,99387.59
2022-09-23T05:24:29.839Z,99391.97
2022-09-23T05:25:26.899Z,99388.47
2022-09-23T05:26:28.437Z,99385.81
2022-09-23T05:27:25.489Z,99391.09
2022-09-23T05:28:22.513Z,99385.75
2022-09-23T05:29:19.751Z,99379.59
2022-09-23T05:30:18.994Z,99379.59
2022-09-23T05:31:20.711Z,99390.09
2022-09-23T05:32:17.855Z,99384.81
2022-09-23T05:33:14.825Z,99383.94
2022-09-23T05:34:14.691Z,99383.91
2022-09-23T05:35:11.710Z,99379.50
2022-09-23T05:36:08.616Z,99383.84
2022-09-23T05:37:05.870Z,99377.69
2022-09-23T05:38:02.805Z,99384.69
2022-09-23T05:38:59.783Z,99385.56
2022-09-23T05:39:56.868Z,99382.00
2022-09-23T05:41:03.698Z,99374.00
2022-09-23T05:42:00.619Z,99375.69
2022-09-23T05:42:57.765Z,99375.59
2022-09-23T05:43:55.161Z,99380.81
2022-09-23T05:44:52.499Z,99378.13
2022-09-23T05:45:49.461Z,99375.38
2022-09-23T05:46:46.631Z,99379.72
2022-09-23T05:47:44.165Z,99377.84
2022-09-23T05:48:44.026Z,99375.13
2022-09-23T05:49:58.646Z,99377.63
2022-09-23T05:50:56.856Z,99374.03
2022-09-23T05:51:53.854Z,99375.69
2022-09-23T05:52:51.534Z,99375.56
2022-09-23T05:53:48.859Z,99385.19
2022-09-23T05:54:45.903Z,99374.56
2022-09-23T05:55:43.094Z,99381.50
2022-09-23T05:56:40.131Z,99380.47
2022-09-23T05:57:37.073Z,99386.53
2022-09-23T05:58:34.156Z,99381.97
2022-09-23T05:59:31.288Z,99389.00
2022-09-23T06:00:28.147Z,99380.06
2022-09-23T06:01:26.601Z,99386.13
2022-09-23T06:02:23.877Z,99391.28
2022-09-23T06:03:21.063Z,99390.31
2022-09-23T06:04:18.188Z,99388.47
2022-09-23T06:05:16.236Z,99398.00
2022-09-23T06:06:14.700Z,99390.78
2022-09-23T06:07:11.955Z,99385.34
2022-09-23T06:08:14.612Z,99394.09
2022-09-23T06:09:13.754Z,99386.09
2022-09-23T06:10:17.699Z,99390.28
2022-09-23T06:11:14.788Z,99396.41
2022-09-23T06:12:14.199Z,99390.06
2022-09-23T06:13:13.935Z,99392.63
2022-09-23T06:14:13.984Z,99386.31
2022-09-23T06:15:12.314Z,99387.03
2022-09-23T06:16:13.979Z,99386.88
2022-09-23T06:17:10.945Z,99379.72
2022-09-23T06:18:08.436Z,99383.03
2022-09-23T06:19:08.448Z,99380.25
2022-09-23T06:20:05.848Z,99381.91
2022-09-23T06:21:03.342Z,99382.63
2022-09-23T06:22:00.477Z,99375.41
2022-09-23T06:23:08.876Z,99369.03
2022-09-23T06:24:08.743Z,99371.53
2022-09-23T06:25:06.081Z,99376.69
2022-09-23T06:26:04.377Z,99380.94
2022-09-23T06:27:01.526Z,99379.97
2022-09-23T06:27:59.287Z,99378.97
2022-09-23T06:28:58.941Z,99373.59
2022-09-23T06:29:56.533Z,99378.84
2022-09-23T06:30:58.191Z,99369.13
2022-09-23T06:31:55.099Z,99372.56
2022-09-23T06:32:52.826Z,99374.34
2022-09-23T06:33:50.326Z,99375.97
2022-09-23T06:34:51.866Z,99374.97
2022-09-23T06:35:57.968Z,99375.69
2022-09-23T06:36:56.174Z,99372.91
2022-09-23T06:37:57.827Z,99378.91
2022-09-23T06:38:54.971Z,99383.13
2022-09-23T06:39:52.626Z,99380.34
2022-09-23T06:40:54.614Z,99375.81
2022-09-23T06:41:51.564Z,99382.69
2022-09-23T06:42:52.238Z,99382.53
2022-09-23T06:43:49.463Z,99386.69
2022-09-23T06:44:47.220Z,99375.81
2022-09-23T06:45:47.483Z,99370.31
2022-09-23T06:46:47.569Z,99385.06
2022-09-23T06:47:44.789Z,99382.22
2022-09-23T06:48:46.027Z,99377.69
2022-09-23T06:49:43.829Z,99379.19
2022-09-23T06:50:40.771Z,99376.38
2022-09-23T06:51:37.823Z,99382.25
2022-09-23T06:52:35.384Z,99384.56
2022-09-23T06:53:32.481Z,99389.56
2022-09-23T06:54:32.741Z,99392.28
2022-09-23T06:55:29.672Z,99388.63
2022-09-23T06:56:26.543Z,99387.63
2022-09-23T06:57:24.509Z,99387.50
2022-09-23T06:58:23.388Z,99391.16
2022-09-23T07:00:45.418Z,99380.03
2022-09-23T07:01:44.073Z,99383.44
2022-09-23T07:02:42.357Z,99384.22
2022-09-23T07:03:39.433Z,99384.81
2022-09-23T07:04:36.970Z,99381.97
2022-09-23T07:05:37.736Z,99373.28
2022-09-23T07:06:34.755Z,99379.47
2022-09-23T07:07:31.993Z,99381.09
2022-09-23T07:08:29.720Z,99389.88
2022-09-23T07:09:28.444Z,99387.50
2022-09-23T07:10:25.309Z,99385.88
2022-09-23T07:11:22.739Z,99381.34
2022-09-23T07:12:20.228Z,99389.41
2022-09-23T07:13:17.183Z,99393.84
2022-09-23T07:14:14.368Z,99380.66
2022-09-23T07:15:11.346Z,99395.69
2022-09-23T07:16:08.488Z,99387.81
2022-09-23T07:17:08.030Z,99382.91
2022-09-23T07:18:04.982Z,99384.69
2022-09-23T07:19:02.848Z,99389.03
2022-09-23T07:19:59.728Z,99390.69
2022-09-23T07:21:00.321Z,99392.38
2022-09-23T07:21:58.634Z,99391.47
2022-09-23T07:22:55.867Z,99388.63
2022-09-23T07:23:52.750Z,99391.03
2022-09-23T07:24:49.723Z,99396.13
2022-09-23T07:25:52.814Z,99391.63
2022-09-23T07:26:51.888Z,99386.47
2022-09-23T07:27:48.960Z,99389.00
2022-09-23T07:28:46.203Z,99389.84
2022-09-23T07:29:48.553Z,99394.13
2022-09-23T07:30:59.249Z,99389.72
2022-09-23T07:32:14.472Z,99390.59
2022-09-23T07:33:25.222Z,99386.91
2022-09-23T07:34:27.246Z,99395.56
2022-09-23T07:35:24.131Z,99390.09
2022-09-23T07:36:20.939Z,99387.47
2022-09-23T07:37:18.041Z,99385.72
2022-09-23T07:38:15.019Z,99389.06
2022-09-23T07:39:12.346Z,99394.06
2022-09-23T07:40:09.625Z,99392.00
2022-09-23T07:41:09.033Z,99391.03
2022-09-23T07:42:06.519Z,99385.44
2022-09-23T07:43:05.403Z,99386.16
2022-09-23T07:44:03.702Z,99385.81
2022-09-23T07:45:00.693Z,99384.72
2022-09-23T07:45:57.653Z,99383.41
2022-09-23T07:47:03.447Z,99380.63
2022-09-23T07:48:04.128Z,99374.56
2022-09-23T07:49:02.277Z,99371.09
2022-09-23T07:50:02.444Z,99372.78
2022-09-23T07:51:02.182Z,99377.00
2022-09-23T07:52:00.115Z,99369.13
2022-09-23T07:58:12.643Z,99381.38
2022-09-23T08:03:27.624Z,99374.28
2022-09-23T08:05:51.582Z,99387.84
2022-09-23T08:08:34.969Z,99373.75
2022-09-23T08:18:40.290Z,99387.13
2022-09-23T08:20:26.323Z,99381.72
2022-09-23T08:22:17.454Z,99386.91
2022-09-23T08:46:57.994Z,99384.97
2022-09-23T09:14:52.164Z,99388.22
2022-09-23T09:16:58.271Z,99376.31
2022-09-23T09:19:47.230Z,99375.56
2022-09-23T09:21:29.732Z,99375.66
2022-09-23T09:23:23.189Z,99369.75
2022-09-23T09:29:51.522Z,99374.94
2022-09-23T09:31:22.248Z,99366.13
2022-09-23T09:32:40.574Z,99360.47
2022-09-23T09:34:32.228Z,99376.34
2022-09-23T09:35:57.447Z,99374.94
2022-09-23T09:37:21.359Z,99368.31
2022-09-23T09:38:22.407Z,99363.59
2022-09-23T09:39:32.027Z,99366.31
2022-09-23T09:42:00.828Z,99368.88
2022-09-23T09:43:02.469Z,99373.44
2022-09-23T09:44:07.730Z,99354.22
2022-09-23T09:45:12.586Z,99359.88
2022-09-23T09:46:29.674Z,99365.38
2022-09-23T09:47:59.220Z,99375.91
2022-09-23T09:49:40.793Z,99362.59
2022-09-23T09:51:07.798Z,99369.50
2022-09-23T09:52:24.083Z,99377.47
2022-09-23T09:53:41.945Z,99362.03
2022-09-23T09:55:52.603Z,99373.47
2022-09-23T09:56:52.957Z,99370.75
2022-09-23T09:58:19.825Z,99364.28
2022-09-23T09:59:37.991Z,99366.25
2022-09-23T10:06:24.718Z,99360.44
2022-09-23T10:07:59.231Z,99363.44
2022-09-23T10:10:41.444Z,99350.78
2022-09-23T10:11:44.730Z,99358.06
2022-09-23T10:12:50.898Z,99364.09
2022-09-23T10:14:24.826Z,99361.41
2022-09-23T10:15:45.675Z,99365.44
2022-09-23T10:16:52.398Z,99364.97
2022-09-23T10:18:00.661Z,99354.56
2022-09-23T10:19:14.919Z,99362.19
2022-09-23T10:20:30.827Z,99352.91
2022-09-23T10:21:48.850Z,99367.94
2022-09-23T10:22:53.265Z,99362.69
2022-09-23T10:24:06.594Z,99355.56
2022-09-23T10:25:22.615Z,99349.66
2022-09-23T10:26:48.487Z,99361.81
2022-09-23T10:28:08.104Z,99360.44
2022-09-23T10:29:58.285Z,99352.22
2022-09-23T10:31:32.452Z,99353.75
2022-09-23T10:34:51.123Z,99362.38
2022-09-23T10:35:58.594Z,99349.72
2022-09-23T10:37:17.934Z,99352.47
2022-09-23T10:38:24.819Z,99359.63
2022-09-23T10:39:44.902Z,99360.47
2022-09-23T10:41:22.190Z,99345.28
2022-09-23T10:45:43.329Z,99350.31
2022-09-23T10:48:43.750Z,99354.47
2022-09-23T10:50:37.656Z,99353.88
2022-09-23T10:53:22.313Z,99351.44
2022-09-23T10:54:40.309Z,99346.06
2022-09-23T10:56:14.433Z,99348.09
2022-09-23T10:57:49.214Z,99342.72
2022-09-23T10:59:59.884Z,99352.41
2022-09-23T11:01:52.266Z,99353.75
2022-09-23T11:06:34.021Z,99347.81
2022-09-23T11:07:43.611Z,99333.78
2022-09-23T11:09:33.469Z,99338.47
2022-09-23T11:11:05.282Z,99339.59
2022-09-23T11:12:44.834Z,99336.28
2022-09-23T11:13:55.080Z,99337.38
2022-09-23T11:15:21.060Z,99341.19
2022-09-23T11:17:21.120Z,99324.72
2022-09-23T11:21:11.113Z,99330.59
2022-09-23T11:27:31.316Z,99326.47
2022-09-23T11:29:23.949Z,99325.16
2022-09-23T11:30:50.548Z,99309.66
2022-09-23T11:32:00.034Z,99321.75
2022-09-23T11:33:31.160Z,99311.56
2022-09-23T11:35:00.223Z,99311.38
2022-09-23T11:36:09.858Z,99318.09
2022-09-23T11:37:31.712Z,99305.03
2022-09-23T11:38:43.490Z,99307.56
2022-09-23T11:39:53.847Z,99312.50
2022-09-23T11:41:02.033Z,99297.72
2022-09-23T11:42:01.335Z,99299.22
2022-09-23T11:43:11.593Z,99298.28
2022-09-23T11:45:54.064Z,99296.97
2022-09-23T11:47:21.363Z,99311.81
2022-09-23T11:48:54.176Z,99309.53
2022-09-23T11:50:38.262Z,99313.59
2022-09-23T11:52:09.986Z,99305.56
2022-09-23T11:59:40.073Z,99301.94
2022-09-23T12:04:23.976Z,99300.81
2022-09-23T12:06:10.962Z,99285.56
2022-09-23T12:10:15.895Z,99286.44
2022-09-23T12:11:50.527Z,99299.81
2022-09-23T12:13:20.022Z,99295.28
2022-09-23T12:15:08.056Z,99298.59
2022-09-23T12:17:11.700Z,99303.19
2022-09-23T12:19:08.037Z,99300.59
2022-09-23T12:20:54.579Z,99301.31
2022-09-23T12:22:52.198Z,99306.41
2022-09-23T12:24:43.013Z,99298.44
2022-09-23T12:25:55.102Z,99295.41
2022-09-23T12:27:34.697Z,99284.53
2022-09-23T12:31:16.883Z,99300.41
2022-09-23T12:32:54.375Z,99300.91
2022-09-23T12:34:51.699Z,99290.53
2022-09-23T12:37:05.591Z,99297.75
2022-09-23T12:40:19.403Z,99299.16
2022-09-23T12:42:22.899Z,99293.59
2022-09-23T12:43:53.903Z,99283.66
2022-09-23T12:47:40.860Z,99285.56
2022-09-23T12:49:39.691Z,99289.97
2022-09-23T12:51:37.860Z,99290.47
2022-09-23T12:57:57.965Z,99294.38
2022-09-23T13:00:34.545Z,99297.91
2022-09-23T13:02:24.499Z,99292.56
2022-09-23T13:04:11.756Z,99276.56
2022-09-23T13:08:06.192Z,99291.09
2022-09-23T13:09:37.067Z,99281.94
2022-09-23T13:11:06.255Z,99286.06
2022-09-23T13:14:45.414Z,99278.66
2022-09-23T13:15:55.803Z,99290.34
2022-09-23T13:17:22.382Z,99267.78
2022-09-23T13:18:51.107Z,99273.22
2022-09-23T13:20:53.299Z,99287.16
2022-09-23T13:29:11.652Z,99278.13
2022-09-23T13:33:17.332Z,99285.41
2022-09-23T13:37:53.016Z,99266.84
2022-09-23T13:39:40.053Z,99265.28
2022-09-23T13:40:47.043Z,99258.47
2022-09-23T13:41:52.823Z,99259.00
2022-09-23T13:45:59.172Z,99255.03
2022-09-23T13:47:24.311Z,99256.50
2022-09-23T13:49:19.920Z,99248.00
2022-09-23T13:53:43.187Z,99257.72
2022-09-23T14:00:35.964Z,99242.78
2022-09-23T14:36:32.037Z,99227.53
2022-09-23T14:42:39.809Z,99219.22
2022-09-23T16:00:56.292Z,99190.06
2022-09-23T16:11:01.583Z,99204.44
2022-09-23T16:20:13.645Z,99203.63
2022-09-23T16:21:41.507Z,99192.72
2022-09-23T16:23:40.644Z,99202.25
2022-09-23T16:35:04.461Z,99187.19
2022-09-23T16:37:11.962Z,99194.97
2022-09-23T16:38:52.842Z,99185.44
2022-09-23T16:41:16.470Z,99187.25
2022-09-23T16:44:24.088Z,99176.31
2022-09-23T16:49:04.612Z,99177.56
2022-09-23T16:50:22.006Z,99168.06
2022-09-23T16:51:52.793Z,99179.81
2022-09-23T16:53:15.808Z,99178.59
2022-09-23T16:55:16.906Z,99175.50
2022-09-23T17:02:05.981Z,99175.03
2022-09-23T17:05:13.839Z,99170.97
2022-09-23T17:06:50.414Z,99158.03
2022-09-23T17:08:17.183Z,99163.22
2022-09-23T17:18:29.322Z,99177.00
2022-09-23T17:27:50.933Z,99175.38
2022-09-23T17:31:43.025Z,99165.97
2022-09-23T17:33:44.205Z,99165.97
2022-09-23T17:35:09.326Z,99153.03
2022-09-23T17:36:19.577Z,99166.16
2022-09-23T17:37:53.642Z,99164.47
2022-09-23T17:39:36.325Z,99155.69
2022-09-23T17:49:05.025Z,99162.81
2022-09-23T17:51:05.227Z,99169.00
2022-09-23T17:57:13.632Z,99179.81
2022-09-23T18:01:12.766Z,99174.50
2022-09-23T18:02:15.441Z,99175.50
2022-09-23T18:06:18.533Z,99171.47
2022-09-23T18:09:19.764Z,99171.53
2022-09-23T18:10:40.876Z,99173.31
2022-09-23T18:14:24.026Z,99183.72
2022-09-23T18:16:46.469Z,99170.44
2022-09-23T18:19:54.453Z,99181.81
2022-09-23T18:21:09.201Z,99174.72
2022-09-23T18:23:26.190Z,99180.78
2022-09-23T18:24:41.392Z,99171.31
2022-09-23T18:26:05.745Z,99177.47
2022-09-23T18:29:40.775Z,99182.72
2022-09-23T18:31:28.796Z,99181.63
2022-09-23T18:32:56.291Z,99174.56
2022-09-23T18:34:11.057Z,99170.16
2022-09-23T18:35:32.313Z,99175.34
2022-09-23T18:36:57.892Z,99183.34
2022-09-23T18:38:05.492Z,99184.06
2022-09-23T18:40:38.215Z,99176.34
2022-09-23T18:41:43.433Z,99182.38
2022-09-23T18:42:49.224Z,99181.53
2022-09-23T18:44:14.084Z,99183.31
2022-09-23T18:45:19.151Z,99187.41
2022-09-23T18:46:30.974Z,99177.00
2022-09-23T18:48:11.837Z,99174.31
2022-09-23T18:49:38.684Z,99184.31
2022-09-23T18:50:45.770Z,99179.03
2022-09-23T18:52:44.744Z,99185.97
2022-09-23T18:54:07.591Z,99180.50
2022-09-23T18:55:26.960Z,99183.19
2022-09-23T18:56:40.174Z,99182.38
2022-09-23T18:58:15.775Z,99181.47
2022-09-23T18:59:37.335Z,99164.91
2022-09-23T19:01:19.584Z,99173.03
2022-09-23T19:02:43.756Z,99179.19
2022-09-23T19:04:40.704Z,99176.53
2022-09-23T19:06:03.145Z,99165.47
2022-09-23T19:08:00.845Z,99165.34
2022-09-23T19:09:37.986Z,99163.75
2022-09-23T19:11:14.524Z,99161.34
2022-09-23T19:12:42.273Z,99160.56
2022-09-23T19:13:43.546Z,99172.28
2022-09-23T19:18:25.296Z,99174.38
2022-09-23T19:21:46.629Z,99178.59
2022-09-23T19:26:45.543Z,99184.00
2022-09-23T19:34:54.442Z,99175.16
2022-09-23T19:36:22.608Z,99162.00
2022-09-23T19:40:02.839Z,99168.34
2022-09-23T19:44:05.415Z,99162.16
2022-09-23T19:49:30.329Z,99153.75
2022-09-23T19:51:21.998Z,99157.38
2022-09-23T19:54:28.773Z,99158.09
2022-09-23T20:00:16.344Z,99146.06
2022-09-23T20:02:22.480Z,99151.47
2022-09-23T20:08:33.156Z,99150.38
2022-09-23T20:15:21.145Z,99139.47
2022-09-23T20:18:52.990Z,99144.94
2022-09-23T20:22:36.390Z,99135.44
2022-09-23T20:24:24.608Z,99142.44
2022-09-23T20:36:33.790Z,99147.41
2022-09-23T20:37:44.016Z,99138.53
2022-09-23T20:42:31.085Z,99140.88
2022-09-23T20:45:56.327Z,99132.94
2022-09-23T20:47:38.152Z,99138.00
2022-09-23T20:48:41.499Z,99142.44
2022-09-23T20:51:39.237Z,99137.94
2022-09-23T20:53:19.905Z,99131.97